Rechercher aéroport 
image banner adimage banner adimage banner ad
image banner ad

KOAK - Metropolitan Oakland Intl

Situé à Oakland, United States

ICAO - OAK, IATA - OAK

Données fournies par Airmate  

Information générale

Coordonnées: N37°43'17" W122°13'16"
Élévation : 9 feet MSL.
Variation magnétique : 14° East
Voir autres Aéroports à California

Données opérationnelles

Special qualification required
Heure actuelle UTC:
Heure actuelle locale:
Météo
METAR: KOAK 262253Z 31012KT 10SM FEW008 SCT150 SCT200 21/14 A2992 RMK AO2 SLP132 T02060139
TAF: KOAK 261720Z 2618/2724 32006KT P6SM SCT010 SCT200 FM262100 30013KT P6SM BKN200 FM270500 31007KT P6SM FEW008 SCT050 BKN200 FM270800 31008KT P6SM BKN008 BKN050 BKN200 FM271630 30007KT P6SM SCT015 SCT050 SCT200 FM272100 30010KT P6SM SCT250
Voir NOTAMs / SUP AIP / TFR affectant cet aéroport [VIEW]
Fréquences de communication: [VIEW]

Pistes:

Identifiant RWYQFULongueur (ft)Largeur (ft)SurfaceLDA (ft)
15164°337675ASPH
33344°337675ASPH
10L112°5458150ASPH5336
10R112°6213150ASPH6213
12130°10520150ASPH10000
28L292°6213150ASPH6213
28R292°5458150ASPH5458
30310°10520150ASPH10000

Coordonnées de l'aéroport

Adresse: Oakland United States

Autres services d'aviation

Écoles de pilotage

Oakland Flyers, Llc

Oakland Flyers, Llc
info@oaklandflyers.com+1(510)568-3317

Vue satellite de KOAK